Time;durP1;ratioP1;P1;durP2;ratioP2;P2;SDS_P1;SDS_P2;PMS_P1;PMS_P2;Temp;Humidity;BMP_temperature;BMP_pressure;BME280_temperature;BME280_humidity;BME280_pressure;Samples;Min_cycle;Max_cycle;Signal;HPM_P1;HPM_P2
2023/05/27 00:02:15;;;;;;;5.63;1.52;;;20.10;62.80;;;;;;6064884;23;20720;-83
2023/05/27 00:04:42;;;;;;;3.60;1.50;;;20.10;62.20;;;;;;6067607;23;20397;-83
2023/05/27 00:07:09;;;;;;;3.30;1.50;;;20.10;61.80;;;;;;6067297;23;20389;-83
2023/05/27 00:09:36;;;;;;;4.25;1.98;;;20.10;62.40;;;;;;6066603;23;20381;-82
2023/05/27 00:12:03;;;;;;;3.87;1.20;;;20.10;62.30;;;;;;6067529;23;20374;-82
2023/05/27 00:14:30;;;;;;;2.40;1.23;;;20.00;62.60;;;;;;6066456;23;20386;-82
2023/05/27 00:16:57;;;;;;;4.35;1.60;;;20.00;62.80;;;;;;6067370;23;20381;-82
2023/05/27 00:19:24;;;;;;;4.60;1.70;;;20.00;62.90;;;;;;6066663;23;20720;-82
2023/05/27 00:21:54;;;;;;;4.57;1.40;;;20.00;62.90;;;;;;6067552;23;20760;-82
2023/05/27 00:24:21;;;;;;;4.28;1.10;;;19.90;63.10;;;;;;6066664;23;20385;-82
2023/05/27 00:26:49;;;;;;;4.55;1.27;;;19.90;63.10;;;;;;6066972;23;20712;-82
2023/05/27 00:29:16;;;;;;;5.53;1.70;;;19.90;63.20;;;;;;6066782;23;20689;-81
2023/05/27 00:31:43;;;;;;;3.53;1.42;;;19.90;62.90;;;;;;6066302;23;20378;-81
2023/05/27 00:34:11;;;;;;;5.68;1.42;;;19.90;63.20;;;;;;6067820;23;20385;-82
2023/05/27 00:36:38;;;;;;;3.88;1.40;;;19.80;63.10;;;;;;6066554;23;20369;-82
2023/05/27 00:39:05;;;;;;;4.38;1.55;;;19.80;63.30;;;;;;6067266;23;20483;-82
2023/05/27 00:41:32;;;;;;;3.78;1.42;;;19.80;63.60;;;;;;6066004;23;20394;-81
2023/05/27 00:44:00;;;;;;;5.70;1.60;;;19.80;63.70;;;;;;6066644;23;20373;-82
2023/05/27 00:46:28;;;;;;;6.67;1.50;;;19.70;63.50;;;;;;6066534;23;20381;-82
2023/05/27 00:48:55;;;;;;;3.20;1.52;;;19.70;63.70;;;;;;6066587;23;20459;-82
2023/05/27 00:51:22;;;;;;;3.65;1.80;;;19.70;63.30;;;;;;6066198;23;20384;-82
2023/05/27 00:53:48;;;;;;;4.28;1.58;;;19.70;64.10;;;;;;6067136;23;20392;-83
2023/05/27 00:56:15;;;;;;;5.20;1.30;;;19.70;63.30;;;;;;6066041;23;20852;-82
2023/05/27 00:58:43;;;;;;;4.07;1.50;;;19.70;62.90;;;;;;6066803;23;20381;-81
2023/05/27 01:01:10;;;;;;;3.35;1.15;;;19.70;62.80;;;;;;6066833;23;20693;-80
2023/05/27 01:54:40;;;;;;;4.23;1.50;;;19.80;61.20;;;;;;6108883;23;20826;-78
2023/05/27 01:57:07;;;;;;;3.25;1.50;;;19.80;61.50;;;;;;6092646;23;20713;-77
2023/05/27 01:59:34;;;;;;;4.43;1.70;;;19.70;61.50;;;;;;6083011;23;20706;-77
2023/05/27 02:02:01;;;;;;;7.32;1.80;;;19.80;61.00;;;;;;6092750;23;20842;-77
2023/05/27 02:04:28;;;;;;;4.85;1.40;;;19.80;61.80;;;;;;6087580;23;20381;-78
2023/05/27 02:06:56;;;;;;;4.65;1.63;;;19.70;61.50;;;;;;6064560;23;20950;-78
2023/05/27 02:09:23;;;;;;;4.15;1.42;;;19.70;62.00;;;;;;6064930;23;20437;-78
2023/05/27 02:11:49;;;;;;;3.17;1.58;;;19.60;62.60;;;;;;6090362;23;20374;-77
2023/05/27 02:14:17;;;;;;;3.95;1.77;;;19.60;62.80;;;;;;6064346;23;20384;-77
2023/05/27 02:16:43;;;;;;;4.07;1.83;;;19.60;62.10;;;;;;6065307;23;20383;-78
2023/05/27 02:19:11;;;;;;;3.67;1.52;;;19.60;62.30;;;;;;6064129;23;20470;-78
2023/05/27 02:21:37;;;;;;;5.40;1.75;;;19.60;62.00;;;;;;6065721;23;20381;-78
2023/05/27 02:24:05;;;;;;;4.30;1.40;;;19.60;62.20;;;;;;6064070;23;20797;-78
2023/05/27 02:26:32;;;;;;;4.10;1.45;;;19.60;62.10;;;;;;6065440;23;20383;-78
2023/05/27 02:28:58;;;;;;;4.80;1.53;;;19.60;62.50;;;;;;6063941;23;20393;-78
2023/05/27 02:31:26;;;;;;;3.47;1.57;;;19.60;61.80;;;;;;6066557;23;20438;-81
2023/05/27 02:33:53;;;;;;;4.18;1.60;;;19.60;63.30;;;;;;6066672;23;20412;-81
2023/05/27 02:36:21;;;;;;;6.00;1.70;;;19.60;61.90;;;;;;6065716;23;20732;-84
2023/05/27 02:38:47;;;;;;;4.80;1.48;;;19.60;61.60;;;;;;6089863;23;20389;-82
2023/05/27 02:41:14;;;;;;;2.40;1.20;;;19.50;62.30;;;;;;6065072;23;20377;-83
2023/05/27 02:43:41;;;;;;;3.10;1.37;;;19.50;62.40;;;;;;6066069;23;20442;-82
2023/05/27 02:46:08;;;;;;;4.55;1.50;;;19.40;62.20;;;;;;6065390;23;20381;-82
2023/05/27 02:48:35;;;;;;;4.07;1.55;;;19.50;61.80;;;;;;6065628;23;20417;-81
2023/05/27 02:51:02;;;;;;;3.95;1.70;;;19.50;62.00;;;;;;6090255;23;20381;-82
2023/05/27 02:53:29;;;;;;;3.53;1.48;;;19.50;62.10;;;;;;6065448;23;20409;-82
2023/05/27 02:55:56;;;;;;;4.35;1.77;;;19.40;62.10;;;;;;6089840;23;20389;-82
2023/05/27 02:58:22;;;;;;;4.72;1.58;;;19.40;62.40;;;;;;6065298;23;20704;-81
2023/05/27 03:00:49;;;;;;;4.97;1.70;;;19.30;62.90;;;;;;6066117;23;20433;-82
2023/05/27 03:03:16;;;;;;;4.63;1.77;;;19.30;62.90;;;;;;6064645;23;20377;-81
2023/05/27 03:05:43;;;;;;;3.15;1.30;;;19.30;62.90;;;;;;6066265;23;20771;-81
2023/05/27 03:08:10;;;;;;;4.35;1.67;;;19.30;62.90;;;;;;6064870;23;20408;-81
2023/05/27 03:10:37;;;;;;;2.67;1.60;;;19.30;62.90;;;;;;6066040;23;20733;-82
2023/05/27 03:13:04;;;;;;;3.67;1.70;;;19.20;63.40;;;;;;6064973;23;20412;-82
2023/05/27 03:15:31;;;;;;;6.07;1.90;;;19.20;63.20;;;;;;6065992;23;20760;-81
2023/05/27 03:17:58;;;;;;;3.30;1.67;;;19.10;63.40;;;;;;6092831;23;20468;-82
2023/05/27 03:20:25;;;;;;;3.42;1.50;;;19.10;62.80;;;;;;6067651;23;20400;-81
2023/05/27 03:22:52;;;;;;;4.28;1.38;;;19.20;62.90;;;;;;6067337;23;20384;-82
2023/05/27 03:25:19;;;;;;;5.03;1.88;;;19.10;63.30;;;;;;6066938;23;20436;-81
2023/05/27 03:27:46;;;;;;;3.85;1.92;;;19.10;64.00;;;;;;6092432;23;20708;-81
2023/05/27 03:30:13;;;;;;;4.28;1.45;;;19.00;64.50;;;;;;6067359;23;20841;-82
2023/05/27 03:32:40;;;;;;;4.07;1.70;;;19.00;64.80;;;;;;6067619;23;20719;-82
2023/05/27 03:35:07;;;;;;;4.53;1.95;;;18.90;65.10;;;;;;6066905;23;20385;-82
2023/05/27 03:37:35;;;;;;;3.63;1.60;;;18.90;66.50;;;;;;6067187;23;20383;-81
2023/05/27 03:40:03;;;;;;;3.80;1.77;;;18.90;65.80;;;;;;6091278;23;20806;-82
2023/05/27 03:42:30;;;;;;;5.68;1.52;;;18.80;66.10;;;;;;6067709;23;20878;-80
2023/05/27 03:44:57;;;;;;;4.88;1.77;;;18.80;66.30;;;;;;6067217;23;20385;-82
2023/05/27 03:47:23;;;;;;;7.07;2.00;;;18.70;66.60;;;;;;6066641;23;20712;-82
2023/05/27 03:49:50;;;;;;;3.00;1.63;;;18.70;67.50;;;;;;6066907;23;20383;-82
2023/05/27 03:52:17;;;;;;;3.20;1.30;;;18.70;67.60;;;;;;6066877;23;20377;-81
2023/05/27 03:54:44;;;;;;;4.15;1.63;;;18.60;67.60;;;;;;6066773;23;20381;-81
2023/05/27 03:57:11;;;;;;;4.03;1.33;;;18.60;68.60;;;;;;6090635;23;20711;-81
2023/05/27 03:59:38;;;;;;;4.13;1.50;;;18.50;69.00;;;;;;6091350;23;20381;-82
2023/05/27 04:02:05;;;;;;;4.60;1.73;;;18.50;68.70;;;;;;6092061;23;20377;-83
2023/05/27 04:04:32;;;;;;;4.47;1.83;;;18.50;68.70;;;;;;6066689;23;20382;-81
2023/05/27 04:07:00;;;;;;;4.95;1.80;;;18.50;68.90;;;;;;6067485;23;20397;-81
2023/05/27 04:09:27;;;;;;;5.05;1.80;;;18.40;69.00;;;;;;6090949;23;20377;-83
2023/05/27 04:11:54;;;;;;;3.78;1.40;;;18.50;69.60;;;;;;6067434;23;20712;-82
2023/05/27 04:14:21;;;;;;;4.70;1.67;;;18.50;68.70;;;;;;6066551;23;20881;-81
2023/05/27 04:16:49;;;;;;;5.00;1.97;;;18.50;68.70;;;;;;6067325;23;20392;-81
2023/05/27 04:19:16;;;;;;;5.97;1.77;;;18.60;67.80;;;;;;6065832;23;20385;-81
2023/05/27 04:21:43;;;;;;;4.65;1.63;;;18.60;68.00;;;;;;6067313;23;20385;-81
2023/05/27 04:24:11;;;;;;;4.38;1.60;;;18.60;68.80;;;;;;6089720;23;20381;-81
2023/05/27 04:26:40;;;;;;;4.18;1.48;;;18.60;68.80;;;;;;6067161;23;20377;-82
2023/05/27 04:29:11;;;;;;;5.10;1.40;;;18.50;68.70;;;;;;6090919;23;20460;-81
2023/05/27 04:31:39;;;;;;;3.47;1.48;;;18.60;68.10;;;;;;6092778;23;20373;-81
2023/05/27 04:34:07;;;;;;;4.70;1.70;;;18.50;68.80;;;;;;6065509;23;20494;-81
2023/05/27 04:36:34;;;;;;;2.97;1.55;;;18.60;68.50;;;;;;6066870;23;20441;-81
2023/05/27 04:39:02;;;;;;;3.70;1.77;;;18.50;69.40;;;;;;6066654;23;20385;-80
2023/05/27 04:41:32;;;;;;;5.63;1.60;;;18.60;68.80;;;;;;6065281;23;20728;-81
2023/05/27 04:44:00;;;;;;;4.63;1.60;;;18.60;69.50;;;;;;6066824;23;20792;-81
2023/05/27 04:46:28;;;;;;;4.95;1.92;;;18.60;69.20;;;;;;6089665;23;20388;-81
2023/05/27 04:48:55;;;;;;;3.85;1.58;;;18.60;69.00;;;;;;6066761;23;20422;-81
2023/05/27 04:51:23;;;;;;;4.68;1.50;;;18.60;70.00;;;;;;6065444;23;20855;-81
2023/05/27 04:53:50;;;;;;;4.85;1.90;;;18.60;70.90;;;;;;6090415;23;20381;-80
2023/05/27 04:56:17;;;;;;;4.05;2.15;;;18.60;70.50;;;;;;6088840;23;20415;-81
2023/05/27 04:58:46;;;;;;;2.97;1.60;;;18.60;71.50;;;;;;6067072;23;20404;-81
2023/05/27 05:01:17;;;;;;;4.25;1.85;;;18.60;71.50;;;;;;6090605;23;20392;-81
2023/05/27 05:03:52;;;;;;;8.68;2.58;;;18.60;71.80;;;;;;6066756;23;20408;-81
2023/05/27 05:06:21;;;;;;;4.88;1.73;;;18.60;73.90;;;;;;6065820;23;20386;-81
2023/05/27 05:08:49;;;;;;;6.18;1.67;;;18.60;76.80;;;;;;6066382;23;20412;-80
2023/05/27 05:11:16;;;;;;;3.60;1.60;;;18.60;76.00;;;;;;6065383;23;20934;-81
2023/05/27 05:13:42;;;;;;;4.27;1.80;;;18.70;76.80;;;;;;6066683;23;20381;-81
2023/05/27 05:16:09;;;;;;;4.70;1.70;;;18.70;77.70;;;;;;6065365;23;20449;-80
2023/05/27 05:18:36;;;;;;;4.60;2.83;;;18.80;78.00;;;;;;6065975;23;20401;-81
2023/05/27 05:21:03;;;;;;;6.50;3.05;;;18.90;76.90;;;;;;6066023;23;20413;-81
2023/05/27 05:23:31;;;;;;;5.53;3.75;;;19.00;79.30;;;;;;6090642;23;20377;-81
2023/05/27 05:26:05;;;;;;;13.73;11.88;;;19.10;81.40;;;;;;6066459;23;20886;-82
2023/05/27 05:28:34;;;;;;;14.93;13.33;;;19.40;87.30;;;;;;6089047;23;20386;-82
2023/05/27 05:31:01;;;;;;;15.52;13.88;;;19.60;88.80;;;;;;6067229;23;20384;-82
2023/05/27 05:33:28;;;;;;;14.00;11.43;;;19.80;87.80;;;;;;6065258;23;20396;-81
2023/05/27 05:35:55;;;;;;;16.85;11.88;;;20.00;87.60;;;;;;6091640;23;20408;-82
2023/05/27 05:38:22;;;;;;;13.23;10.73;;;20.10;86.00;;;;;;6064997;23;20693;-82
2023/05/27 05:40:52;;;;;;;12.23;9.47;;;20.10;85.10;;;;;;6066289;23;20381;-82
2023/05/27 05:43:20;;;;;;;14.40;12.75;;;20.20;83.60;;;;;;6065294;23;20382;-82
2023/05/27 05:45:47;;;;;;;14.63;12.35;;;20.30;85.90;;;;;;6065402;23;20369;-81
2023/05/27 05:48:14;;;;;;;15.83;13.37;;;20.40;84.50;;;;;;6088897;23;20461;-82
2023/05/27 05:50:40;;;;;;;14.67;13.13;;;20.50;84.40;;;;;;6066100;23;20409;-81
2023/05/27 05:53:09;;;;;;;18.45;13.52;;;20.60;81.80;;;;;;6066260;23;20408;-81
2023/05/27 05:55:37;;;;;;;13.80;11.67;;;20.70;82.30;;;;;;6065814;23;20381;-82
2023/05/27 05:58:04;;;;;;;17.27;13.57;;;20.80;83.30;;;;;;6066188;23;20389;-81
2023/05/27 06:00:31;;;;;;;13.63;11.40;;;20.80;80.30;;;;;;6065569;23;20731;-81
2023/05/27 06:02:58;;;;;;;14.48;12.02;;;20.80;82.30;;;;;;6065523;23;20404;-82
2023/05/27 06:05:26;;;;;;;13.18;10.77;;;20.80;81.40;;;;;;6065281;23;20867;-81
2023/05/27 06:07:53;;;;;;;13.70;11.33;;;20.80;81.20;;;;;;6065852;23;20468;-81
2023/05/27 06:10:20;;;;;;;13.88;12.20;;;20.80;81.60;;;;;;6065023;23;20391;-82
2023/05/27 06:12:47;;;;;;;13.82;11.82;;;20.80;81.80;;;;;;6065934;23;20428;-80
2023/05/27 06:15:14;;;;;;;14.65;10.93;;;20.80;81.70;;;;;;6065074;23;20380;-80
2023/05/27 06:17:42;;;;;;;13.32;10.75;;;20.80;82.30;;;;;;6065405;23;20373;-79
2023/05/27 06:20:09;;;;;;;12.50;10.40;;;20.90;82.20;;;;;;6066040;23;20471;-79
2023/05/27 06:22:36;;;;;;;11.60;10.13;;;20.90;82.80;;;;;;6064631;23;20370;-82
2023/05/27 06:25:03;;;;;;;13.40;11.33;;;20.90;83.50;;;;;;6066274;23;20458;-81
2023/05/27 06:27:30;;;;;;;11.40;9.10;;;20.90;83.30;;;;;;6064682;23;20374;-79
2023/05/27 06:29:57;;;;;;;10.45;8.80;;;21.10;82.60;;;;;;6065696;23;20385;-79
2023/05/27 06:32:23;;;;;;;14.63;10.27;;;21.10;82.30;;;;;;6065187;23;20389;-80
2023/05/27 06:34:51;;;;;;;13.20;10.43;;;21.20;82.90;;;;;;6065703;23;20377;-79
2023/05/27 06:37:18;;;;;;;9.93;8.93;;;21.30;81.10;;;;;;6064382;23;20712;-80
2023/05/27 06:39:44;;;;;;;16.33;11.82;;;21.30;80.40;;;;;;6065756;23;20381;-79
2023/05/27 06:42:11;;;;;;;11.60;10.48;;;21.30;83.00;;;;;;6065843;23;20385;-80
2023/05/27 06:44:38;;;;;;;16.10;12.73;;;21.40;82.60;;;;;;6088264;23;20430;-80
2023/05/27 06:47:05;;;;;;;12.87;11.53;;;21.30;84.70;;;;;;6066061;23;20385;-79
2023/05/27 06:49:32;;;;;;;16.23;11.05;;;21.30;86.20;;;;;;6087913;23;20816;-80
2023/05/27 06:51:59;;;;;;;13.07;11.75;;;21.50;86.80;;;;;;6065688;23;20389;-80
2023/05/27 06:54:26;;;;;;;11.93;10.23;;;21.50;84.80;;;;;;6064893;23;20385;-80
2023/05/27 06:56:53;;;;;;;13.32;10.57;;;21.50;84.60;;;;;;6065353;23;20428;-80
2023/05/27 06:59:20;;;;;;;12.30;10.20;;;21.50;82.70;;;;;;6065281;23;20631;-80
2023/05/27 07:01:47;;;;;;;11.43;10.15;;;21.50;82.90;;;;;;6065723;23;20377;-80
2023/05/27 07:04:16;;;;;;;11.07;9.80;;;21.50;83.20;;;;;;6089195;23;20484;-80
2023/05/27 07:06:43;;;;;;;11.20;9.90;;;21.50;83.20;;;;;;6065088;23;20433;-80
2023/05/27 07:09:11;;;;;;;11.63;10.23;;;21.60;82.50;;;;;;6065166;23;20381;-79
2023/05/27 07:11:38;;;;;;;12.90;9.63;;;21.70;80.40;;;;;;6064151;23;20693;-80
2023/05/27 07:14:05;;;;;;;10.63;8.93;;;21.60;82.00;;;;;;6065568;23;20446;-80
2023/05/27 07:16:32;;;;;;;11.90;10.38;;;21.70;84.40;;;;;;6089590;23;20381;-80
2023/05/27 07:18:59;;;;;;;10.60;9.53;;;21.70;84.20;;;;;;6065452;23;20385;-80
2023/05/27 07:21:26;;;;;;;11.63;10.40;;;21.70;81.20;;;;;;6088428;23;20392;-80
2023/05/27 07:23:53;;;;;;;12.55;11.02;;;21.80;79.20;;;;;;6065345;23;20381;-80
2023/05/27 07:26:20;;;;;;;12.32;10.80;;;21.90;82.80;;;;;;6089781;23;20385;-81
2023/05/27 07:28:47;;;;;;;13.50;11.15;;;22.00;84.20;;;;;;6065242;23;20381;-80
2023/05/27 07:31:14;;;;;;;11.63;10.43;;;22.10;84.40;;;;;;6066102;23;20433;-81
2023/05/27 07:33:41;;;;;;;11.02;9.38;;;22.20;84.30;;;;;;6064197;23;21135;-81
2023/05/27 07:36:09;;;;;;;10.73;9.57;;;22.40;81.90;;;;;;6065516;23;20419;-81
2023/05/27 07:38:36;;;;;;;11.93;10.73;;;22.50;80.00;;;;;;6064556;23;20385;-81
2023/05/27 07:41:03;;;;;;;10.77;9.67;;;22.50;76.60;;;;;;6065812;23;20389;-81
2023/05/27 07:43:30;;;;;;;12.23;10.80;;;22.60;77.60;;;;;;6064379;23;20385;-81
2023/05/27 07:45:57;;;;;;;12.02;10.40;;;22.70;74.80;;;;;;6065911;23;20465;-81
2023/05/27 07:48:24;;;;;;;13.68;11.00;;;22.80;76.40;;;;;;6064509;23;20389;-81
2023/05/27 07:50:51;;;;;;;11.75;10.40;;;22.80;75.40;;;;;;6065676;23;20444;-81
2023/05/27 07:53:19;;;;;;;11.45;10.25;;;22.80;76.70;;;;;;6065170;23;20382;-81
2023/05/27 07:55:45;;;;;;;12.25;10.95;;;22.90;76.80;;;;;;6064608;23;20369;-81
2023/05/27 07:58:13;;;;;;;13.77;9.65;;;23.00;74.70;;;;;;6065330;23;20384;-82
2023/05/27 08:00:40;;;;;;;13.68;10.23;;;23.10;76.30;;;;;;6064811;23;20377;-81
2023/05/27 08:03:07;;;;;;;11.68;10.48;;;23.20;74.40;;;;;;6065907;23;20381;-81
2023/05/27 08:05:34;;;;;;;13.75;10.43;;;23.30;74.70;;;;;;6066709;23;20382;-81
2023/05/27 08:08:01;;;;;;;11.52;9.52;;;23.40;71.70;;;;;;6090351;23;20384;-82
2023/05/27 08:10:28;;;;;;;12.40;10.30;;;23.50;71.60;;;;;;6066248;23;20385;-81
2023/05/27 08:12:55;;;;;;;13.52;10.70;;;23.50;70.60;;;;;;6067069;23;20381;-81
2023/05/27 08:15:22;;;;;;;10.17;9.17;;;23.50;70.90;;;;;;6067399;23;20759;-81
2023/05/27 08:17:49;;;;;;;9.30;8.17;;;23.50;69.60;;;;;;6065638;23;20848;-81
2023/05/27 08:20:16;;;;;;;9.82;8.02;;;23.60;70.00;;;;;;6067219;23;20712;-81
2023/05/27 08:22:43;;;;;;;8.98;8.07;;;23.80;70.50;;;;;;6066429;23;20388;-81
2023/05/27 08:25:10;;;;;;;9.47;7.43;;;23.90;70.50;;;;;;6067335;23;20404;-81
2023/05/27 08:27:54;;;;;;;7.63;6.82;;;24.10;64.40;;;;;;6065905;23;20385;-82
2023/05/27 08:30:21;;;;;;;7.68;6.03;;;24.10;62.50;;;;;;6066598;23;20440;-82
2023/05/27 08:32:48;;;;;;;7.07;6.28;;;24.10;63.80;;;;;;6066284;23;20391;-82
2023/05/27 08:35:18;;;;;;;7.13;5.65;;;24.20;64.20;;;;;;6091633;23;20385;-81
2023/05/27 08:37:45;;;;;;;8.93;6.32;;;24.30;64.90;;;;;;6066475;23;20383;-81
2023/05/27 08:40:17;;;;;;;7.30;6.60;;;24.40;63.50;;;;;;6066571;23;20381;-82
2023/05/27 08:42:45;;;;;;;6.82;6.10;;;24.40;62.10;;;;;;6066406;23;20758;-81
2023/05/27 08:45:12;;;;;;;5.43;4.85;;;24.40;61.30;;;;;;6067022;23;20712;-82
2023/05/27 08:47:39;;;;;;;6.63;5.72;;;24.50;62.80;;;;;;6066131;23;20382;-81
2023/05/27 08:50:07;;;;;;;7.20;6.22;;;24.60;61.00;;;;;;6091400;23;20480;-82
2023/05/27 08:52:47;;;;;;;8.73;7.83;;;24.50;62.00;;;;;;6066098;23;20396;-81
2023/05/27 08:55:17;;;;;;;9.32;7.38;;;24.40;61.50;;;;;;6066455;23;20393;-81
2023/05/27 08:57:49;;;;;;;6.93;6.25;;;24.20;61.80;;;;;;6066015;23;20391;-81
2023/05/27 09:00:17;;;;;;;6.85;5.68;;;24.10;60.90;;;;;;6066963;23;20385;-81
2023/05/27 09:02:46;;;;;;;6.75;5.40;;;24.10;63.10;;;;;;6065942;23;20474;-81
2023/05/27 09:05:15;;;;;;;7.30;6.40;;;24.10;63.50;;;;;;6066827;23;20453;-82
2023/05/27 09:07:43;;;;;;;6.90;6.20;;;24.20;62.50;;;;;;6065603;23;20428;-81
2023/05/27 09:10:10;;;;;;;6.43;5.82;;;24.30;62.70;;;;;;6066849;23;20745;-82
2023/05/27 09:12:37;;;;;;;7.28;5.63;;;24.40;62.40;;;;;;6065783;23;20381;-82
2023/05/27 09:15:05;;;;;;;8.90;6.43;;;24.60;61.80;;;;;;6066618;23;20449;-81
2023/05/27 09:17:32;;;;;;;4.63;4.07;;;24.70;59.40;;;;;;6065181;23;20396;-82
2023/05/27 09:19:59;;;;;;;5.82;4.93;;;24.80;62.50;;;;;;6066742;23;20393;-82
2023/05/27 09:22:29;;;;;;;5.95;5.28;;;25.00;60.70;;;;;;6066668;23;20388;-82
2023/05/27 09:24:57;;;;;;;5.15;4.65;;;25.20;60.60;;;;;;6065962;23;20411;-81
2023/05/27 09:27:28;;;;;;;6.65;5.13;;;25.50;58.60;;;;;;6066359;23;20715;-82
2023/05/27 09:29:56;;;;;;;5.87;5.07;;;25.60;57.10;;;;;;6065526;23;20770;-82
2023/05/27 09:32:27;;;;;;;5.35;4.82;;;25.90;58.50;;;;;;6091202;23;20377;-81
2023/05/27 09:34:55;;;;;;;4.45;4.05;;;26.00;56.10;;;;;;6066007;23;20745;-83
2023/05/27 09:37:32;;;;;;;5.80;5.30;;;26.10;56.40;;;;;;6090271;23;20401;-82
2023/05/27 09:40:10;;;;;;;5.70;5.00;;;26.20;54.90;;;;;;6065337;23;20412;-82
2023/05/27 09:42:47;;;;;;;5.95;5.35;;;26.20;56.30;;;;;;6065708;23;20378;-83
2023/05/27 09:45:19;;;;;;;5.78;4.45;;;26.30;54.30;;;;;;6066321;23;20384;-82
2023/05/27 09:47:53;;;;;;;4.85;4.35;;;26.40;54.90;;;;;;6065014;23;20436;-83
2023/05/27 09:50:21;;;;;;;4.88;4.38;;;26.70;55.30;;;;;;6066262;23;20396;-83
2023/05/27 09:52:49;;;;;;;5.22;4.30;;;26.80;54.00;;;;;;6065901;23;20381;-83
2023/05/27 09:55:32;;;;;;;5.10;4.43;;;27.00;53.30;;;;;;6069225;23;20389;-83
2023/05/27 09:58:02;;;;;;;4.95;4.45;;;27.00;53.00;;;;;;6065703;23;20891;-83
2023/05/27 10:00:31;;;;;;;5.05;4.50;;;27.00;52.60;;;;;;6066366;23;20910;-83
2023/05/27 10:03:02;;;;;;;5.22;4.72;;;27.00;51.70;;;;;;6064694;23;20386;-83
2023/05/27 10:05:30;;;;;;;5.20;4.60;;;26.90;51.80;;;;;;6066372;23;20386;-83
2023/05/27 10:07:59;;;;;;;4.57;3.38;;;26.80;52.00;;;;;;6064888;23;20689;-83
2023/05/27 10:10:40;;;;;;;4.30;3.80;;;26.80;52.10;;;;;;6067813;23;20391;-82
2023/05/27 10:13:08;;;;;;;3.70;3.40;;;26.70;52.90;;;;;;6066283;23;20390;-83
2023/05/27 10:15:35;;;;;;;4.85;3.78;;;26.90;54.20;;;;;;6066812;23;20386;-83
2023/05/27 10:18:10;;;;;;;5.38;4.28;;;27.00;52.60;;;;;;6089015;23;20748;-83
2023/05/27 10:20:39;;;;;;;5.78;4.80;;;26.90;51.70;;;;;;6089546;23;20396;-84
2023/05/27 10:23:18;;;;;;;4.93;4.00;;;27.00;50.70;;;;;;6090758;23;20445;-83
2023/05/27 10:25:50;;;;;;;6.43;4.20;;;26.80;52.80;;;;;;6064952;23;20389;-83
2023/05/27 10:28:27;;;;;;;4.97;4.40;;;26.90;52.60;;;;;;6066055;23;20383;-83
2023/05/27 10:31:09;;;;;;;4.28;3.67;;;26.80;51.20;;;;;;6088953;23;20389;-83
2023/05/27 10:33:39;;;;;;;5.45;4.70;;;26.90;52.10;;;;;;6089396;23;20488;-83
2023/05/27 10:36:09;;;;;;;4.50;4.17;;;27.00;52.50;;;;;;6090435;23;20377;-84
2023/05/27 10:38:37;;;;;;;4.38;3.67;;;27.10;51.60;;;;;;6086830;23;20389;-85
2023/05/27 10:41:06;;;;;;;3.67;3.37;;;27.00;52.60;;;;;;6064068;23;20377;-85
2023/05/27 10:43:34;;;;;;;4.15;3.75;;;27.00;53.30;;;;;;6064275;23;20924;-84
2023/05/27 10:46:08;;;;;;;4.22;3.20;;;26.80;50.00;;;;;;6065136;23;20902;-83
2023/05/27 10:48:37;;;;;;;3.67;3.38;;;26.60;51.30;;;;;;6063965;23;20389;-84
2023/05/27 10:51:04;;;;;;;5.55;3.95;;;26.50;53.10;;;;;;6064967;23;20385;-83
2023/05/27 10:53:31;;;;;;;4.80;3.88;;;26.40;53.80;;;;;;6065836;23;20412;-84
2023/05/27 10:55:59;;;;;;;4.63;3.83;;;26.40;54.60;;;;;;6064034;23;20840;-84
2023/05/27 10:58:27;;;;;;;3.67;3.28;;;26.30;53.80;;;;;;6064480;23;20405;-84
2023/05/27 11:00:58;;;;;;;5.95;4.30;;;26.30;54.20;;;;;;6064910;23;21031;-84
2023/05/27 11:03:28;;;;;;;4.47;3.72;;;26.30;52.20;;;;;;6065849;23;20381;-84
2023/05/27 11:06:03;;;;;;;4.93;4.33;;;26.50;52.30;;;;;;6065009;23;20377;-84
2023/05/27 11:08:34;;;;;;;3.83;3.30;;;26.80;51.70;;;;;;6090555;23;20719;-85
2023/05/27 11:11:06;;;;;;;4.13;3.58;;;27.20;51.90;;;;;;6064848;23;20385;-84
2023/05/27 11:13:40;;;;;;;4.75;3.65;;;27.40;50.50;;;;;;6065719;23;20558;-85
2023/05/27 11:16:07;;;;;;;5.47;3.50;;;27.50;50.60;;;;;;6063343;23;20385;-85
2023/05/27 11:18:41;;;;;;;3.85;3.15;;;27.60;50.10;;;;;;6090736;23;20472;-85
2023/05/27 11:21:10;;;;;;;2.97;2.78;;;27.60;50.10;;;;;;6064620;23;20384;-84
2023/05/27 11:23:40;;;;;;;4.93;3.60;;;27.50;49.60;;;;;;6065836;23;20381;-84
2023/05/27 11:26:19;;;;;;;4.75;3.58;;;27.30;48.80;;;;;;6064816;23;20508;-84
2023/05/27 11:28:56;;;;;;;3.85;3.53;;;27.00;50.20;;;;;;6064831;23;20444;-84
2023/05/27 11:31:33;;;;;;;5.88;4.68;;;26.90;50.80;;;;;;6088162;23;20385;-84
2023/05/27 11:34:00;;;;;;;4.53;4.05;;;26.60;51.70;;;;;;6064851;23;20879;-83
2023/05/27 11:36:31;;;;;;;5.55;5.05;;;26.50;54.20;;;;;;6066140;23;20379;-84
2023/05/27 11:39:00;;;;;;;5.33;4.30;;;26.20;53.90;;;;;;6068004;23;20930;-84
2023/05/27 11:41:29;;;;;;;7.05;5.50;;;26.20;55.00;;;;;;6067204;23;20619;-84
2023/05/27 11:43:58;;;;;;;5.07;4.60;;;26.20;53.30;;;;;;6067449;23;20460;-85
2023/05/27 11:46:39;;;;;;;5.78;4.70;;;26.50;53.80;;;;;;6066887;23;20446;-85
2023/05/27 11:49:08;;;;;;;5.57;4.38;;;26.70;52.20;;;;;;6066866;23;20389;-83
2023/05/27 11:51:37;;;;;;;5.10;4.60;;;26.70;52.00;;;;;;6066092;23;20860;-84
2023/05/27 11:54:04;;;;;;;4.60;4.18;;;26.60;51.90;;;;;;6066499;23;20389;-85
2023/05/27 11:56:32;;;;;;;4.43;3.90;;;26.60;54.40;;;;;;6067504;23;20743;-84
2023/05/27 11:58:59;;;;;;;3.85;3.47;;;26.70;53.80;;;;;;6067365;23;20467;-83
2023/05/27 12:01:26;;;;;;;6.43;4.70;;;26.90;53.30;;;;;;6065822;23;20378;-84
2023/05/27 12:03:53;;;;;;;6.32;4.47;;;26.80;51.40;;;;;;6067550;23;20452;-83
2023/05/27 12:06:20;;;;;;;5.10;4.55;;;26.70;51.00;;;;;;6066899;23;20377;-83
2023/05/27 12:08:47;;;;;;;5.43;4.43;;;26.50;51.80;;;;;;6067399;23;20377;-83
2023/05/27 12:11:14;;;;;;;4.40;3.70;;;26.50;53.20;;;;;;6065446;23;20385;-84
2023/05/27 12:13:41;;;;;;;4.87;4.37;;;26.50;53.30;;;;;;6068161;23;20748;-83
2023/05/27 12:16:08;;;;;;;6.20;5.20;;;26.60;52.40;;;;;;6066004;23;20685;-84
2023/05/27 12:18:36;;;;;;;4.30;3.78;;;26.50;50.80;;;;;;6067203;23;20389;-84
2023/05/27 12:21:03;;;;;;;4.72;4.13;;;26.30;51.50;;;;;;6067432;23;20402;-84
2023/05/27 12:23:30;;;;;;;4.65;4.25;;;26.20;52.60;;;;;;6066748;23;20472;-83
2023/05/27 12:25:57;;;;;;;4.90;4.40;;;26.30;53.40;;;;;;6066983;23;20416;-84
2023/05/27 12:28:24;;;;;;;4.03;3.72;;;26.60;52.00;;;;;;6066587;23;20385;-84
2023/05/27 12:30:51;;;;;;;5.05;3.65;;;26.80;52.20;;;;;;6066898;23;20444;-84
2023/05/27 12:33:18;;;;;;;3.90;3.23;;;27.10;51.20;;;;;;6091428;23;20381;-84
2023/05/27 12:35:46;;;;;;;3.67;3.17;;;27.50;51.20;;;;;;6065727;23;20473;-84
2023/05/27 12:38:13;;;;;;;3.17;2.88;;;27.90;49.40;;;;;;6065924;23;20460;-84
2023/05/27 12:40:43;;;;;;;3.70;3.30;;;28.20;48.30;;;;;;6067529;23;20373;-84
2023/05/27 12:43:11;;;;;;;3.75;3.42;;;28.50;47.20;;;;;;6065448;23;20741;-87
2023/05/27 12:45:37;;;;;;;3.95;3.30;;;28.60;46.40;;;;;;6066518;23;20374;-84
2023/05/27 12:48:04;;;;;;;3.88;3.40;;;28.60;46.10;;;;;;6067071;23;20385;-84
2023/05/27 12:50:32;;;;;;;3.72;3.13;;;28.50;45.80;;;;;;6065471;23;20437;-84
2023/05/27 12:53:00;;;;;;;3.60;3.00;;;28.40;46.90;;;;;;6066777;23;20377;-84
2023/05/27 12:55:27;;;;;;;5.00;3.20;;;28.40;46.90;;;;;;6090159;23;22257;-85
2023/05/27 12:57:54;;;;;;;4.18;3.78;;;28.50;47.70;;;;;;6064719;23;20385;-84
2023/05/27 13:00:21;;;;;;;3.90;3.20;;;28.70;47.20;;;;;;6066043;23;20869;-84
2023/05/27 13:02:49;;;;;;;5.33;3.63;;;28.90;46.30;;;;;;6066924;23;20840;-85
2023/05/27 13:05:17;;;;;;;4.30;3.60;;;28.90;44.50;;;;;;6066122;23;20438;-85
2023/05/27 13:08:01;;;;;;;4.10;3.80;;;28.60;44.90;;;;;;6066951;23;20910;-84
2023/05/27 13:10:29;;;;;;;5.68;4.15;;;28.50;46.90;;;;;;6090641;23;20389;-84
2023/05/27 13:12:57;;;;;;;4.20;3.03;;;28.60;46.70;;;;;;6067035;23;20840;-84
2023/05/27 13:15:24;;;;;;;3.00;2.67;;;28.70;46.10;;;;;;6066188;23;20386;-84
2023/05/27 13:17:52;;;;;;;4.10;3.43;;;29.00;47.20;;;;;;6066658;23;20720;-84
2023/05/27 13:20:21;;;;;;;6.03;3.50;;;29.00;46.00;;;;;;6065737;23;20760;-84
2023/05/27 13:22:49;;;;;;;3.00;2.75;;;28.90;45.50;;;;;;6066505;23;20872;-85
2023/05/27 13:25:16;;;;;;;4.30;3.13;;;28.80;46.20;;;;;;6065741;23;20716;-84
2023/05/27 13:27:46;;;;;;;4.68;3.25;;;28.70;45.40;;;;;;6066707;23;20378;-85
2023/05/27 13:30:14;;;;;;;4.32;3.63;;;28.90;47.10;;;;;;6065387;23;20482;-83
2023/05/27 13:32:42;;;;;;;4.40;3.75;;;28.80;46.70;;;;;;6091982;23;20405;-84
2023/05/27 13:35:14;;;;;;;4.00;3.70;;;28.50;46.20;;;;;;6066208;23;20388;-84
2023/05/27 13:37:41;;;;;;;4.38;3.53;;;28.30;46.40;;;;;;6066128;23;20380;-84
2023/05/27 13:40:09;;;;;;;3.70;3.40;;;28.00;47.10;;;;;;6066405;23;20377;-84